Time;durP1;ratioP1;P1;durP2;ratioP2;P2;SDS_P1;SDS_P2;PMS_P1;PMS_P2;Temp;Humidity;BMP_temperature;BMP_pressure;BME280_temperature;BME280_humidity;BME280_pressure;Samples;Min_cycle;Max_cycle;Signal;HPM_P1;HPM_P2
2023/04/20 00:00:29;;;;;;;4.65;1.90;;;;;;;;;;4975355;28;25064;-74
2023/04/20 00:02:57;;;;;;;8.93;2.03;;;;;;;;;;4988033;28;25129;-74
2023/04/20 00:05:23;;;;;;;3.03;1.83;;;;;;;;;;4977048;28;25059;-75
2023/04/20 00:07:49;;;;;;;2.67;1.73;;;;;;;;;;4978268;28;25052;-74
2023/04/20 00:10:15;;;;;;;4.15;2.03;;;;;;;;;;4989022;28;25063;-74
2023/04/20 00:12:41;;;;;;;8.60;2.30;;;;;;;;;;4984081;28;25087;-73
2023/04/20 00:15:08;;;;;;;4.47;1.98;;;;;;;;;;4982384;28;25158;-75
2023/04/20 00:17:35;;;;;;;6.97;2.20;;;;;;;;;;4974483;28;25067;-74
2023/04/20 00:20:02;;;;;;;8.65;2.53;;;;;;;;;;4973841;28;25073;-74
2023/04/20 00:22:28;;;;;;;6.35;1.90;;;;;;;;;;4993023;28;25072;-74
2023/04/20 00:24:54;;;;;;;4.18;2.67;;;;;;;;;;4970693;28;25185;-73
2023/04/20 00:27:20;;;;;;;5.20;2.40;;;;;;;;;;4976112;28;25107;-72
2023/04/20 00:29:46;;;;;;;3.88;1.95;;;;;;;;;;4991236;28;25062;-75
2023/04/20 00:32:12;;;;;;;3.85;2.00;;;;;;;;;;4993766;28;25074;-74
2023/04/20 00:34:38;;;;;;;2.90;1.50;;;;;;;;;;4993614;28;25070;-73
2023/04/20 00:37:05;;;;;;;7.47;2.58;;;;;;;;;;4976581;28;25071;-74
2023/04/20 00:39:31;;;;;;;4.82;2.40;;;;;;;;;;4973950;28;25063;-75
2023/04/20 00:42:04;;;;;;;4.45;2.38;;;;;;;;;;4978211;28;25069;-75
2023/04/20 00:44:29;;;;;;;4.50;2.30;;;;;;;;;;4982076;28;25169;-72
2023/04/20 00:46:56;;;;;;;7.78;2.00;;;;;;;;;;4992722;28;25074;-77
2023/04/20 00:49:24;;;;;;;2.67;1.88;;;;;;;;;;5007042;28;25078;-76
2023/04/20 00:51:50;;;;;;;5.55;2.40;;;;;;;;;;4985407;28;25050;-73
2023/04/20 00:54:16;;;;;;;5.43;2.42;;;;;;;;;;4994887;28;25088;-70
2023/04/20 00:56:42;;;;;;;5.72;2.10;;;;;;;;;;4981118;28;25079;-73
2023/04/20 00:59:09;;;;;;;4.40;1.90;;;;;;;;;;4983527;28;25059;-75
2023/04/20 01:01:36;;;;;;;6.32;2.10;;;;;;;;;;4973795;28;25092;-75
2023/04/20 01:04:02;;;;;;;5.60;2.33;;;;;;;;;;4978768;28;25061;-75
2023/04/20 01:06:29;;;;;;;4.07;2.17;;;;;;;;;;4983666;28;25082;-74
2023/04/20 01:08:55;;;;;;;10.30;2.20;;;;;;;;;;4993643;28;25060;-72
2023/04/20 01:11:21;;;;;;;4.03;1.98;;;;;;;;;;4994602;28;25071;-73
2023/04/20 01:13:48;;;;;;;6.78;2.47;;;;;;;;;;5004221;28;25137;-74
2023/04/20 01:16:14;;;;;;;3.88;2.10;;;;;;;;;;4998376;28;25059;-76
2023/04/20 01:18:42;;;;;;;3.25;2.10;;;;;;;;;;4992126;28;25106;-73
2023/04/20 01:21:09;;;;;;;5.63;2.35;;;;;;;;;;4981788;28;25153;-76
2023/04/20 01:23:35;;;;;;;3.03;2.13;;;;;;;;;;4983147;28;25069;-75
2023/04/20 01:26:05;;;;;;;3.47;1.90;;;;;;;;;;4975758;28;25130;-75
2023/04/20 01:28:31;;;;;;;2.17;1.85;;;;;;;;;;4989735;28;25087;-79
2023/04/20 01:30:57;;;;;;;10.30;2.08;;;;;;;;;;4994872;28;25061;-74
2023/04/20 01:33:23;;;;;;;7.40;2.45;;;;;;;;;;4984012;28;25067;-74
2023/04/20 01:35:49;;;;;;;6.72;2.20;;;;;;;;;;4996045;28;25073;-75
2023/04/20 01:38:18;;;;;;;3.78;1.80;;;;;;;;;;4981944;28;25066;-74
2023/04/20 01:40:44;;;;;;;2.85;1.80;;;;;;;;;;4980117;28;25095;-72
2023/04/20 01:43:10;;;;;;;6.78;1.50;;;;;;;;;;4983395;28;25103;-74
2023/04/20 01:45:36;;;;;;;8.35;1.92;;;;;;;;;;4986654;28;25076;-75
2023/04/20 01:48:02;;;;;;;4.43;1.65;;;;;;;;;;5003969;28;25081;-72
2023/04/20 01:50:28;;;;;;;2.15;1.70;;;;;;;;;;4981999;28;25083;-73
2023/04/20 01:52:54;;;;;;;6.45;2.28;;;;;;;;;;4980266;28;25148;-76
2023/04/20 01:55:20;;;;;;;6.13;2.10;;;;;;;;;;4979776;28;25070;-76
2023/04/20 01:57:46;;;;;;;3.53;2.10;;;;;;;;;;4979966;28;25075;-73
2023/04/20 02:00:13;;;;;;;6.50;2.15;;;;;;;;;;4980041;28;25066;-75
2023/04/20 02:02:39;;;;;;;11.73;2.08;;;;;;;;;;4982843;28;25099;-77
2023/04/20 02:05:05;;;;;;;3.65;2.10;;;;;;;;;;4980413;28;25101;-74
2023/04/20 02:07:31;;;;;;;8.88;2.38;;;;;;;;;;4981181;28;25152;-77
2023/04/20 02:09:57;;;;;;;3.90;1.80;;;;;;;;;;4982931;28;25074;-77
2023/04/20 02:12:23;;;;;;;9.07;2.70;;;;;;;;;;4981588;28;25081;-75
2023/04/20 02:14:49;;;;;;;7.45;1.92;;;;;;;;;;4979740;28;25071;-72
2023/04/20 02:17:15;;;;;;;6.80;2.45;;;;;;;;;;4984906;28;25062;-73
2023/04/20 02:19:41;;;;;;;4.97;2.95;;;;;;;;;;5003300;28;25066;-77
2023/04/20 02:22:07;;;;;;;5.93;3.63;;;;;;;;;;4979438;28;25156;-75
2023/04/20 02:24:33;;;;;;;8.85;2.28;;;;;;;;;;4979078;28;25074;-73
2023/04/20 02:27:01;;;;;;;4.47;2.03;;;;;;;;;;4979387;28;25115;-76
2023/04/20 02:29:27;;;;;;;4.70;2.25;;;;;;;;;;4975726;28;25061;-74
2023/04/20 02:31:53;;;;;;;7.03;2.40;;;;;;;;;;4992991;28;25084;-73
2023/04/20 02:34:19;;;;;;;3.67;1.75;;;;;;;;;;4980036;28;25100;-73
2023/04/20 02:36:46;;;;;;;5.32;2.60;;;;;;;;;;4984494;28;25078;-73
2023/04/20 02:39:12;;;;;;;5.75;2.85;;;;;;;;;;4986236;28;25082;-78
2023/04/20 02:41:38;;;;;;;5.35;2.20;;;;;;;;;;4979387;28;25063;-75
2023/04/20 02:44:04;;;;;;;3.28;2.17;;;;;;;;;;4978014;28;25082;-70
2023/04/20 02:46:29;;;;;;;8.85;2.25;;;;;;;;;;4981421;28;25060;-74
2023/04/20 02:48:55;;;;;;;5.68;2.35;;;;;;;;;;4976891;28;25157;-73
2023/04/20 02:51:21;;;;;;;5.32;2.55;;;;;;;;;;4970373;28;25073;-72
2023/04/20 02:53:47;;;;;;;7.72;2.63;;;;;;;;;;4992977;28;25076;-72
2023/04/20 02:56:13;;;;;;;4.85;2.58;;;;;;;;;;4992783;28;25147;-78
2023/04/20 02:58:39;;;;;;;5.70;2.25;;;;;;;;;;4979984;28;25100;-71
2023/04/20 03:01:06;;;;;;;4.82;2.50;;;;;;;;;;4982452;28;25105;-73
2023/04/20 03:03:32;;;;;;;6.38;2.72;;;;;;;;;;4983818;28;25069;-72
2023/04/20 03:05:58;;;;;;;5.32;2.53;;;;;;;;;;4987260;28;25050;-73
2023/04/20 03:08:24;;;;;;;5.60;3.03;;;;;;;;;;4992749;28;25139;-75
2023/04/20 03:10:50;;;;;;;3.22;2.75;;;;;;;;;;4988354;28;25090;-75
2023/04/20 03:13:16;;;;;;;8.80;3.00;;;;;;;;;;4999361;28;25054;-73
2023/04/20 03:15:43;;;;;;;6.30;2.55;;;;;;;;;;4990654;28;25065;-74
2023/04/20 03:18:09;;;;;;;5.18;2.83;;;;;;;;;;4982919;28;25059;-80
2023/04/20 03:20:35;;;;;;;5.50;2.70;;;;;;;;;;4983571;28;25060;-74
2023/04/20 03:23:01;;;;;;;4.82;2.42;;;;;;;;;;4984164;28;25094;-75
2023/04/20 03:25:28;;;;;;;7.00;3.33;;;;;;;;;;4983092;28;25073;-74
2023/04/20 03:27:54;;;;;;;8.48;3.13;;;;;;;;;;4991389;28;25075;-72
2023/04/20 03:30:20;;;;;;;9.35;3.53;;;;;;;;;;4987292;28;25094;-75
2023/04/20 03:32:46;;;;;;;11.40;3.22;;;;;;;;;;5003824;28;25116;-76
2023/04/20 03:35:12;;;;;;;6.25;3.03;;;;;;;;;;4992490;28;25124;-73
2023/04/20 03:37:38;;;;;;;7.30;4.40;;;;;;;;;;4983428;28;25156;-73
2023/04/20 03:40:06;;;;;;;7.45;3.40;;;;;;;;;;4985488;28;25112;-74
2023/04/20 03:42:32;;;;;;;4.45;3.00;;;;;;;;;;4997822;28;25061;-78
2023/04/20 03:44:58;;;;;;;6.53;3.00;;;;;;;;;;4999131;28;25067;-74
2023/04/20 03:47:24;;;;;;;7.90;4.03;;;;;;;;;;4991203;28;25069;-76
2023/04/20 03:49:50;;;;;;;12.18;3.40;;;;;;;;;;5010101;28;25064;-74
2023/04/20 03:52:16;;;;;;;6.57;4.10;;;;;;;;;;5018465;28;25046;-75
2023/04/20 03:54:42;;;;;;;6.13;3.47;;;;;;;;;;5001613;28;25069;-74
2023/04/20 03:57:08;;;;;;;6.32;3.33;;;;;;;;;;5027714;28;25059;-76
2023/04/20 03:59:34;;;;;;;7.45;3.75;;;;;;;;;;4998180;28;25071;-75
2023/04/20 04:02:00;;;;;;;6.35;3.58;;;;;;;;;;4997387;28;25068;-74
2023/04/20 04:04:26;;;;;;;8.23;3.42;;;;;;;;;;4999344;28;25056;-77
2023/04/20 04:06:52;;;;;;;4.80;3.25;;;;;;;;;;5003056;28;25101;-79
2023/04/20 04:09:18;;;;;;;8.50;3.30;;;;;;;;;;4995332;28;25082;-74
2023/04/20 04:11:44;;;;;;;8.23;3.80;;;;;;;;;;4994210;28;25070;-78
2023/04/20 04:14:10;;;;;;;7.22;4.13;;;;;;;;;;4994493;28;25069;-82
2023/04/20 04:16:36;;;;;;;17.30;4.72;;;;;;;;;;5012121;28;25058;-78
2023/04/20 04:19:02;;;;;;;6.57;4.15;;;;;;;;;;5004625;28;25085;-77
2023/04/20 04:21:28;;;;;;;6.57;4.03;;;;;;;;;;4998129;28;25082;-78
2023/04/20 04:23:54;;;;;;;8.15;4.25;;;;;;;;;;4987160;28;25060;-76
2023/04/20 04:26:23;;;;;;;7.03;3.75;;;;;;;;;;5008311;28;25051;-79
2023/04/20 04:28:50;;;;;;;9.77;4.30;;;;;;;;;;5011211;28;25077;-77
2023/04/20 04:31:20;;;;;;;12.88;4.80;;;;;;;;;;4994013;28;25071;-78
2023/04/20 04:33:46;;;;;;;9.35;4.07;;;;;;;;;;5014232;28;25073;-73
2023/04/20 04:36:14;;;;;;;9.77;4.47;;;;;;;;;;4993778;28;25063;-79
2023/04/20 04:38:43;;;;;;;8.02;4.65;;;;;;;;;;5016001;28;25145;-75
2023/04/20 04:41:09;;;;;;;8.57;4.00;;;;;;;;;;5001455;28;25091;-78
2023/04/20 04:43:36;;;;;;;8.98;4.30;;;;;;;;;;4993335;28;25052;-81
2023/04/20 04:46:09;;;;;;;8.55;3.90;;;;;;;;;;4997008;28;25056;-76
2023/04/20 04:48:35;;;;;;;9.93;4.35;;;;;;;;;;4996847;28;25071;-78
2023/04/20 04:51:01;;;;;;;10.30;4.07;;;;;;;;;;4991873;28;25057;-79
2023/04/20 04:53:27;;;;;;;6.82;3.60;;;;;;;;;;5006617;28;25058;-78
2023/04/20 04:55:53;;;;;;;9.38;3.53;;;;;;;;;;5013228;28;25108;-75
2023/04/20 04:58:19;;;;;;;8.07;3.75;;;;;;;;;;4998151;28;25080;-79
2023/04/20 05:00:45;;;;;;;11.23;4.03;;;;;;;;;;4997542;28;25080;-79
2023/04/20 05:03:11;;;;;;;6.63;4.05;;;;;;;;;;4993383;28;25063;-79
2023/04/20 05:05:37;;;;;;;4.70;3.10;;;;;;;;;;4991371;28;25082;-77
2023/04/20 05:08:03;;;;;;;7.03;4.68;;;;;;;;;;4988442;28;25048;-76
2023/04/20 05:10:29;;;;;;;9.60;3.60;;;;;;;;;;4990717;28;25108;-77
2023/04/20 05:12:58;;;;;;;5.88;3.65;;;;;;;;;;4991458;28;25058;-77
2023/04/20 05:15:24;;;;;;;11.38;3.95;;;;;;;;;;4982355;28;25090;-79
2023/04/20 05:17:50;;;;;;;6.25;3.30;;;;;;;;;;4974428;28;25068;-76
2023/04/20 05:20:17;;;;;;;9.20;4.95;;;;;;;;;;4974618;28;25144;-76
2023/04/20 05:22:43;;;;;;;5.68;3.47;;;;;;;;;;4972981;28;25060;-73
2023/04/20 05:25:09;;;;;;;6.50;3.38;;;;;;;;;;4968294;28;25079;-76
2023/04/20 05:27:35;;;;;;;7.20;3.72;;;;;;;;;;4972347;28;25075;-73
2023/04/20 05:30:01;;;;;;;15.25;4.05;;;;;;;;;;4966566;28;25120;-75
2023/04/20 05:32:27;;;;;;;9.65;4.05;;;;;;;;;;4967859;28;25095;-77
2023/04/20 05:34:53;;;;;;;7.95;3.10;;;;;;;;;;4976616;28;25061;-72
2023/04/20 05:37:19;;;;;;;6.45;3.22;;;;;;;;;;4970358;28;25069;-76
2023/04/20 05:39:45;;;;;;;8.00;3.35;;;;;;;;;;4976174;28;25075;-73
2023/04/20 05:42:11;;;;;;;8.88;3.75;;;;;;;;;;4978241;28;25058;-80
2023/04/20 05:44:38;;;;;;;7.78;3.47;;;;;;;;;;4999769;28;25083;-75
2023/04/20 05:47:07;;;;;;;10.77;3.60;;;;;;;;;;4990667;28;25066;-75
2023/04/20 05:49:34;;;;;;;10.63;4.70;;;;;;;;;;4983416;28;25053;-73
2023/04/20 05:52:00;;;;;;;5.45;3.38;;;;;;;;;;4994408;28;25085;-76
2023/04/20 05:54:27;;;;;;;10.85;3.08;;;;;;;;;;4990118;28;25143;-74
2023/04/20 05:56:53;;;;;;;7.25;3.30;;;;;;;;;;4984086;28;25074;-74
2023/04/20 05:59:19;;;;;;;9.85;3.10;;;;;;;;;;4976428;28;25113;-74
2023/04/20 06:01:45;;;;;;;8.68;3.25;;;;;;;;;;4975813;28;25109;-71
2023/04/20 06:04:11;;;;;;;8.05;3.00;;;;;;;;;;4971272;28;25161;-74
2023/04/20 06:06:37;;;;;;;9.23;3.00;;;;;;;;;;4966557;28;25055;-70
2023/04/20 06:09:03;;;;;;;13.43;3.65;;;;;;;;;;4972445;28;25139;-75
2023/04/20 06:11:30;;;;;;;7.20;3.03;;;;;;;;;;4968806;28;25071;-72
2023/04/20 06:13:56;;;;;;;3.22;2.33;;;;;;;;;;4969195;28;25081;-72
2023/04/20 06:16:22;;;;;;;8.85;2.67;;;;;;;;;;4969967;28;25078;-73
2023/04/20 06:18:48;;;;;;;5.97;2.20;;;;;;;;;;4977581;28;25052;-71
2023/04/20 06:21:15;;;;;;;7.32;2.38;;;;;;;;;;4968685;28;25051;-71
2023/04/20 06:23:41;;;;;;;4.53;2.30;;;;;;;;;;4969800;28;25075;-70
2023/04/20 06:26:09;;;;;;;4.25;2.58;;;;;;;;;;4967617;28;25084;-72
2023/04/20 06:28:35;;;;;;;4.25;2.55;;;;;;;;;;4967708;28;25065;-73
2023/04/20 06:31:01;;;;;;;5.25;2.42;;;;;;;;;;4973839;28;25082;-72
2023/04/20 06:33:27;;;;;;;3.00;2.50;;;;;;;;;;4975740;28;25075;-71
2023/04/20 06:35:55;;;;;;;4.53;2.35;;;;;;;;;;4968886;28;25063;-72
2023/04/20 06:38:21;;;;;;;8.93;2.70;;;;;;;;;;4967675;28;25085;-71
2023/04/20 06:40:47;;;;;;;7.57;2.78;;;;;;;;;;4969195;28;25106;-72
2023/04/20 06:43:13;;;;;;;9.65;2.47;;;;;;;;;;4967332;28;25168;-72
2023/04/20 06:45:39;;;;;;;3.45;2.08;;;;;;;;;;4969397;28;25059;-69
2023/04/20 06:48:05;;;;;;;4.30;2.45;;;;;;;;;;4969956;28;25096;-70
2023/04/20 06:50:31;;;;;;;3.45;1.77;;;;;;;;;;4970201;28;25071;-70
2023/04/20 06:52:57;;;;;;;8.32;3.28;;;;;;;;;;4962785;28;25187;-73
2023/04/20 06:55:23;;;;;;;4.85;2.08;;;;;;;;;;4981469;28;25074;-73
2023/04/20 06:57:49;;;;;;;8.52;2.63;;;;;;;;;;4967466;28;25106;-69
2023/04/20 07:00:15;;;;;;;4.80;2.53;;;;;;;;;;4966875;28;25088;-75
2023/04/20 07:02:45;;;;;;;11.88;2.95;;;;;;;;;;4967103;28;25071;-73
2023/04/20 07:05:11;;;;;;;2.95;2.00;;;;;;;;;;4976605;28;25156;-73
2023/04/20 07:07:38;;;;;;;5.28;2.45;;;;;;;;;;4966008;28;25075;-72
2023/04/20 07:10:04;;;;;;;6.82;2.55;;;;;;;;;;4965796;28;25091;-73
2023/04/20 07:12:30;;;;;;;4.43;2.20;;;;;;;;;;4967984;28;25183;-73
2023/04/20 07:14:56;;;;;;;4.05;1.92;;;;;;;;;;4964848;28;25148;-71
2023/04/20 07:17:22;;;;;;;5.75;2.40;;;;;;;;;;4969269;28;25130;-73
2023/04/20 07:19:48;;;;;;;7.80;2.70;;;;;;;;;;4972245;28;25151;-73
2023/04/20 07:22:14;;;;;;;5.57;2.30;;;;;;;;;;4967886;28;25163;-74
2023/04/20 07:24:40;;;;;;;8.60;2.33;;;;;;;;;;4973415;28;25065;-75
2023/04/20 07:27:07;;;;;;;6.13;2.58;;;;;;;;;;4967028;28;25144;-72
2023/04/20 07:29:33;;;;;;;9.07;3.03;;;;;;;;;;4968824;28;25154;-73
2023/04/20 07:31:59;;;;;;;5.60;2.58;;;;;;;;;;4970830;28;25175;-75
2023/04/20 07:34:25;;;;;;;5.57;2.25;;;;;;;;;;4979247;28;25147;-75
2023/04/20 07:36:51;;;;;;;9.18;3.45;;;;;;;;;;4977108;28;25069;-72
2023/04/20 07:39:17;;;;;;;3.30;2.35;;;;;;;;;;4973135;28;25083;-74
2023/04/20 07:41:43;;;;;;;5.68;2.45;;;;;;;;;;4970204;28;25076;-72
2023/04/20 07:44:10;;;;;;;7.68;3.25;;;;;;;;;;4973916;28;25083;-70
2023/04/20 07:46:35;;;;;;;4.40;2.38;;;;;;;;;;4995891;28;25043;-72
2023/04/20 07:49:01;;;;;;;4.15;2.30;;;;;;;;;;4984938;28;25057;-72
2023/04/20 07:51:29;;;;;;;3.08;2.50;;;;;;;;;;4964955;28;25056;-73
2023/04/20 07:53:56;;;;;;;6.65;2.78;;;;;;;;;;4967546;28;25065;-71
2023/04/20 07:56:21;;;;;;;5.95;2.92;;;;;;;;;;4968175;28;25080;-74
2023/04/20 07:58:47;;;;;;;11.27;3.63;;;;;;;;;;4970734;28;25116;-74
2023/04/20 08:01:13;;;;;;;7.80;2.90;;;;;;;;;;4967699;28;25111;-72
2023/04/20 08:03:40;;;;;;;6.40;3.25;;;;;;;;;;4970963;28;25062;-74
2023/04/20 08:06:06;;;;;;;5.40;3.20;;;;;;;;;;4966087;28;25062;-77
2023/04/20 08:08:32;;;;;;;5.45;3.40;;;;;;;;;;4974276;28;25073;-73
2023/04/20 08:10:58;;;;;;;7.93;3.15;;;;;;;;;;4968095;28;25150;-73
2023/04/20 08:13:24;;;;;;;7.57;3.08;;;;;;;;;;4965916;28;25058;-72
2023/04/20 08:15:50;;;;;;;12.43;3.47;;;;;;;;;;4989663;28;25053;-71
2023/04/20 08:18:16;;;;;;;9.13;2.97;;;;;;;;;;4970363;28;25149;-72
2023/04/20 08:20:44;;;;;;;9.60;3.30;;;;;;;;;;4963957;28;25062;-75
2023/04/20 08:23:10;;;;;;;7.43;3.05;;;;;;;;;;4973107;28;25111;-71
2023/04/20 08:25:39;;;;;;;4.68;2.83;;;;;;;;;;4965998;28;25097;-72
2023/04/20 08:28:05;;;;;;;10.40;3.20;;;;;;;;;;4967313;28;25072;-70
2023/04/20 08:30:31;;;;;;;6.63;2.65;;;;;;;;;;4975093;28;25095;-74
2023/04/20 08:32:58;;;;;;;8.52;3.58;;;;;;;;;;4970279;28;25085;-72
2023/04/20 08:35:24;;;;;;;6.35;2.58;;;;;;;;;;4965145;28;25056;-74
2023/04/20 08:37:50;;;;;;;5.75;3.58;;;;;;;;;;4964846;28;25052;-74
2023/04/20 08:40:19;;;;;;;6.28;2.85;;;;;;;;;;4967191;28;25077;-72
2023/04/20 08:42:45;;;;;;;11.18;3.10;;;;;;;;;;4966526;28;25062;-74
2023/04/20 08:45:11;;;;;;;5.80;3.95;;;;;;;;;;4967984;28;25054;-72
2023/04/20 08:47:38;;;;;;;6.95;3.78;;;;;;;;;;4959074;28;25058;-74
2023/04/20 08:50:05;;;;;;;7.82;3.33;;;;;;;;;;4970291;28;25085;-77
2023/04/20 08:52:31;;;;;;;5.97;3.60;;;;;;;;;;4967292;28;25059;-72
2023/04/20 08:54:57;;;;;;;9.40;3.38;;;;;;;;;;4977214;28;25062;-71
2023/04/20 08:57:22;;;;;;;7.03;3.25;;;;;;;;;;4966869;28;25063;-74
2023/04/20 08:59:48;;;;;;;8.85;3.58;;;;;;;;;;4967381;28;25090;-76
2023/04/20 09:02:15;;;;;;;8.50;3.67;;;;;;;;;;4969994;28;25076;-73
2023/04/20 09:04:41;;;;;;;10.07;3.35;;;;;;;;;;4966939;28;25081;-72
2023/04/20 09:07:16;;;;;;;9.27;3.50;;;;;;;;;;4974127;28;25069;-71
2023/04/20 09:09:52;;;;;;;7.68;3.30;;;;;;;;;;4964295;28;25062;-73
2023/04/20 09:12:18;;;;;;;5.32;3.53;;;;;;;;;;4970936;28;25079;-75
2023/04/20 09:14:45;;;;;;;10.45;3.75;;;;;;;;;;4993640;28;25061;-74
2023/04/20 09:17:13;;;;;;;6.82;3.75;;;;;;;;;;4969436;28;25063;-73
2023/04/20 09:19:39;;;;;;;11.27;4.05;;;;;;;;;;4971718;28;25148;-71
2023/04/20 09:22:05;;;;;;;7.65;2.85;;;;;;;;;;4969240;28;25091;-74
2023/04/20 09:24:35;;;;;;;8.52;3.85;;;;;;;;;;4968051;28;25053;-72
2023/04/20 09:27:02;;;;;;;6.57;3.85;;;;;;;;;;4976886;28;25071;-72
2023/04/20 09:29:29;;;;;;;6.72;4.10;;;;;;;;;;4970284;28;25069;-74
2023/04/20 09:31:55;;;;;;;9.93;4.00;;;;;;;;;;4972934;28;25075;-70
2023/04/20 09:34:21;;;;;;;6.47;3.72;;;;;;;;;;4968656;28;25088;-74
2023/04/20 09:36:54;;;;;;;14.07;4.50;;;;;;;;;;4962710;28;25089;-71
2023/04/20 09:39:21;;;;;;;7.13;3.72;;;;;;;;;;4974698;28;25099;-71
2023/04/20 09:41:47;;;;;;;12.85;4.35;;;;;;;;;;4973570;28;25165;-74
2023/04/20 09:44:15;;;;;;;9.45;3.70;;;;;;;;;;4968534;28;25087;-74
2023/04/20 09:46:41;;;;;;;12.63;4.07;;;;;;;;;;4968885;28;25073;-73
2023/04/20 09:49:08;;;;;;;10.70;4.45;;;;;;;;;;4969842;28;25063;-72
2023/04/20 09:51:36;;;;;;;7.45;3.92;;;;;;;;;;4969117;28;25078;-73
2023/04/20 09:54:03;;;;;;;7.13;3.92;;;;;;;;;;4973604;28;25129;-73
2023/04/20 09:56:29;;;;;;;8.10;4.07;;;;;;;;;;4968423;28;25051;-77
2023/04/20 09:58:56;;;;;;;4.97;3.00;;;;;;;;;;4983857;28;25163;-76
2023/04/20 10:01:22;;;;;;;7.63;3.60;;;;;;;;;;4976897;28;25072;-71
2023/04/20 10:03:49;;;;;;;5.50;3.67;;;;;;;;;;4974755;28;25072;-72
2023/04/20 10:06:21;;;;;;;13.38;4.20;;;;;;;;;;4983347;28;25069;-71
2023/04/20 10:08:48;;;;;;;5.55;3.63;;;;;;;;;;4974421;28;25056;-72
2023/04/20 10:11:44;;;;;;;12.18;4.32;;;;;;;;;;4976720;28;25064;-75
2023/04/20 10:14:23;;;;;;;8.95;3.75;;;;;;;;;;4966913;28;25046;-74
2023/04/20 10:17:02;;;;;;;8.10;3.45;;;;;;;;;;4961864;28;25059;-72
2023/04/20 10:19:37;;;;;;;9.48;4.65;;;;;;;;;;4978246;28;25051;-70
2023/04/20 10:22:03;;;;;;;6.82;4.07;;;;;;;;;;4963207;28;25103;-71
2023/04/20 10:24:30;;;;;;;8.65;3.30;;;;;;;;;;4968764;28;25092;-73
2023/04/20 10:26:56;;;;;;;8.82;4.60;;;;;;;;;;4970771;28;25086;-72
2023/04/20 10:29:26;;;;;;;8.52;4.07;;;;;;;;;;4968097;28;25085;-72
2023/04/20 10:31:52;;;;;;;7.60;4.07;;;;;;;;;;4972594;28;25062;-72
2023/04/20 10:34:29;;;;;;;6.40;4.28;;;;;;;;;;4965942;28;25084;-72
2023/04/20 10:36:55;;;;;;;9.73;5.22;;;;;;;;;;4968358;28;25084;-73
2023/04/20 10:39:21;;;;;;;8.77;3.80;;;;;;;;;;4973619;28;25072;-72
2023/04/20 10:41:53;;;;;;;11.98;4.97;;;;;;;;;;4978044;28;25100;-71
2023/04/20 10:44:20;;;;;;;8.52;4.13;;;;;;;;;;4965609;28;25072;-72
2023/04/20 10:46:49;;;;;;;8.27;4.30;;;;;;;;;;4986563;28;25129;-74
2023/04/20 10:49:15;;;;;;;5.82;3.88;;;;;;;;;;4968529;28;25092;-73
2023/04/20 10:51:48;;;;;;;8.48;4.18;;;;;;;;;;4972159;28;25108;-73
2023/04/20 10:54:14;;;;;;;10.10;4.18;;;;;;;;;;4964016;28;25062;-72
2023/04/20 10:56:44;;;;;;;7.22;4.50;;;;;;;;;;4973294;28;25076;-73
2023/04/20 10:59:11;;;;;;;8.55;4.60;;;;;;;;;;4995648;28;25078;-73
2023/04/20 11:01:37;;;;;;;5.72;3.80;;;;;;;;;;4987125;28;25078;-72
2023/04/20 11:04:04;;;;;;;8.15;4.55;;;;;;;;;;4975753;28;25076;-75
2023/04/20 11:06:33;;;;;;;11.05;4.97;;;;;;;;;;4977200;28;25056;-72
2023/04/20 11:08:59;;;;;;;10.00;5.00;;;;;;;;;;4981612;28;25065;-75
2023/04/20 11:11:27;;;;;;;7.45;4.38;;;;;;;;;;4985209;28;25143;-73
2023/04/20 11:14:04;;;;;;;8.07;5.35;;;;;;;;;;4981384;28;25110;-74
2023/04/20 11:16:30;;;;;;;10.60;5.38;;;;;;;;;;4980681;28;25073;-75
2023/04/20 11:18:57;;;;;;;8.35;4.63;;;;;;;;;;4979267;28;25063;-74
2023/04/20 11:21:23;;;;;;;6.78;4.15;;;;;;;;;;4974362;28;25055;-71
2023/04/20 11:23:49;;;;;;;6.45;4.47;;;;;;;;;;4973118;28;25112;-71
2023/04/20 11:26:15;;;;;;;10.02;4.53;;;;;;;;;;4976326;28;25058;-70
2023/04/20 11:28:54;;;;;;;8.30;4.60;;;;;;;;;;4977456;28;25062;-72
2023/04/20 11:31:20;;;;;;;5.75;4.03;;;;;;;;;;4987570;28;25073;-73
2023/04/20 11:33:46;;;;;;;8.52;4.47;;;;;;;;;;4973070;28;25164;-73
2023/04/20 11:36:20;;;;;;;9.30;5.28;;;;;;;;;;4974787;28;25096;-75
2023/04/20 11:38:46;;;;;;;10.25;5.00;;;;;;;;;;4971305;28;25162;-76
2023/04/20 11:41:12;;;;;;;9.45;4.55;;;;;;;;;;4968986;28;25081;-74
2023/04/20 11:43:38;;;;;;;7.65;4.00;;;;;;;;;;4975845;28;25072;-70
2023/04/20 11:46:13;;;;;;;6.50;4.32;;;;;;;;;;4973592;28;25081;-71
2023/04/20 11:48:39;;;;;;;5.80;4.18;;;;;;;;;;4978413;28;25053;-74
2023/04/20 11:51:05;;;;;;;5.60;3.90;;;;;;;;;;4970494;28;25053;-76
2023/04/20 11:53:31;;;;;;;9.23;5.32;;;;;;;;;;4970573;28;25102;-77
2023/04/20 11:55:57;;;;;;;11.65;4.85;;;;;;;;;;4969712;28;25101;-77
2023/04/20 11:58:23;;;;;;;10.68;4.70;;;;;;;;;;4969707;28;25156;-75
2023/04/20 12:00:49;;;;;;;7.30;3.50;;;;;;;;;;4972098;28;25129;-75
2023/04/20 12:03:15;;;;;;;4.93;3.38;;;;;;;;;;4973091;28;25053;-72
2023/04/20 12:05:42;;;;;;;5.65;3.90;;;;;;;;;;4972998;28;25097;-70
2023/04/20 12:08:08;;;;;;;4.63;3.22;;;;;;;;;;4972308;28;25172;-73
2023/04/20 12:10:34;;;;;;;4.68;2.95;;;;;;;;;;4974325;28;25082;-75
2023/04/20 12:13:00;;;;;;;9.70;3.88;;;;;;;;;;4971679;28;25046;-75
2023/04/20 12:15:26;;;;;;;4.78;3.42;;;;;;;;;;4980231;28;25196;-74
2023/04/20 12:17:52;;;;;;;4.25;3.70;;;;;;;;;;4971107;28;25083;-74
2023/04/20 12:20:18;;;;;;;7.05;3.22;;;;;;;;;;4971390;28;25073;-73
2023/04/20 12:22:44;;;;;;;5.57;2.67;;;;;;;;;;4967336;28;25115;-71
2023/04/20 12:25:10;;;;;;;10.70;2.88;;;;;;;;;;4970732;28;25070;-75
2023/04/20 12:27:37;;;;;;;11.95;3.83;;;;;;;;;;4975946;28;25072;-70
2023/04/20 12:30:03;;;;;;;4.72;2.92;;;;;;;;;;4980668;28;25139;-73
2023/04/20 12:32:29;;;;;;;4.10;2.88;;;;;;;;;;4969017;28;25062;-72
2023/04/20 12:34:55;;;;;;;7.32;3.08;;;;;;;;;;4976479;28;25061;-70
2023/04/20 12:37:21;;;;;;;6.63;3.70;;;;;;;;;;4970757;28;25069;-71
2023/04/20 12:39:47;;;;;;;7.93;3.75;;;;;;;;;;4976510;28;25078;-73
2023/04/20 12:42:13;;;;;;;8.73;3.58;;;;;;;;;;4991458;28;25055;-72
2023/04/20 12:44:39;;;;;;;6.45;3.70;;;;;;;;;;4972886;28;25095;-73
2023/04/20 12:47:05;;;;;;;7.13;3.72;;;;;;;;;;4976100;28;25055;-73
2023/04/20 12:49:31;;;;;;;9.90;4.07;;;;;;;;;;4973269;28;25066;-72
2023/04/20 12:51:57;;;;;;;7.57;4.03;;;;;;;;;;4976505;28;25064;-72
2023/04/20 12:54:23;;;;;;;6.55;3.80;;;;;;;;;;4975039;28;25059;-72
2023/04/20 12:56:49;;;;;;;6.40;4.22;;;;;;;;;;4976051;28;25061;-68
2023/04/20 12:59:15;;;;;;;7.07;3.75;;;;;;;;;;4979213;28;25059;-72
2023/04/20 13:01:41;;;;;;;7.13;3.40;;;;;;;;;;4977995;28;25113;-73
2023/04/20 13:04:07;;;;;;;6.65;3.60;;;;;;;;;;4976868;28;25093;-72
2023/04/20 13:06:33;;;;;;;9.23;3.50;;;;;;;;;;4979904;28;25047;-73
2023/04/20 13:09:00;;;;;;;4.75;3.17;;;;;;;;;;4995041;28;25080;-72
2023/04/20 13:11:25;;;;;;;7.60;3.63;;;10.60;1.00;;;;;;4980273;28;25084;-72
2023/04/20 13:13:51;;;;;;;4.43;3.17;;;;;;;;;;4977654;28;25103;-72
2023/04/20 13:16:17;;;;;;;7.85;3.50;;;;;;;;;;4980421;28;25091;-72
2023/04/20 13:18:43;;;;;;;4.85;3.10;;;;;;;;;;4985126;28;25059;-71
2023/04/20 13:21:09;;;;;;;5.45;3.53;;;;;;;;;;4983557;28;25154;-73
2023/04/20 13:23:36;;;;;;;6.40;2.88;;;;;;;;;;4982619;28;25059;-76
2023/04/20 13:26:02;;;;;;;6.53;3.55;;;;;;;;;;4979664;28;25082;-71
2023/04/20 13:28:29;;;;;;;9.02;4.10;;;;;;;;;;4982972;28;25078;-75
2023/04/20 13:30:56;;;;;;;6.95;3.83;;;;;;;;;;4998705;28;25045;-73
2023/04/20 13:33:22;;;;;;;6.18;3.53;;;;;;;;;;4990505;28;25053;-73
2023/04/20 13:35:48;;;;;;;9.52;3.40;;;;;;;;;;4977667;28;25079;-68
2023/04/20 13:38:14;;;;;;;5.68;3.35;;;;;;;;;;4980198;28;25068;-72
2023/04/20 13:40:43;;;;;;;6.07;3.55;;;;;;;;;;4990304;28;25080;-72
2023/04/20 13:43:08;;;;;;;7.15;3.50;;;;;;;;;;4977861;28;25131;-73
2023/04/20 13:45:34;;;;;;;4.80;3.05;;;;;;;;;;4979058;28;25057;-73
2023/04/20 13:48:01;;;;;;;4.18;3.28;;;;;;;;;;4975989;28;25050;-76
2023/04/20 13:50:27;;;;;;;4.55;3.08;;;;;;;;;;4978496;28;25059;-71
2023/04/20 13:52:53;;;;;;;4.75;3.55;;;;;;;;;;4974601;28;25210;-70
2023/04/20 13:55:19;;;;;;;5.55;3.53;;;;;;;;;;4974629;28;25058;-74
2023/04/20 13:57:45;;;;;;;4.90;3.30;;;;;;;;;;4990433;28;25080;-67
2023/04/20 14:00:11;;;;;;;5.43;3.45;;;;;;;;;;4974413;28;25044;-73
2023/04/20 14:02:37;;;;;;;5.85;3.35;;;;;;;;;;4976265;28;25070;-71
2023/04/20 14:05:05;;;;;;;9.00;3.47;;;;;;;;;;4973644;28;25085;-71
2023/04/20 14:07:31;;;;;;;6.10;3.30;;;;;;;;;;4976319;28;25074;-71
2023/04/20 14:09:58;;;;;;;5.32;3.45;;;;;;;;;;4975130;28;25169;-71
2023/04/20 14:12:26;;;;;;;5.75;3.92;;;;;;;;;;4976041;28;25093;-73
2023/04/20 14:14:52;;;;;;;6.97;3.75;;;;;;;;;;4974588;28;25062;-71
2023/04/20 14:17:18;;;;;;;5.95;3.67;;;;;;;;;;4980496;28;25162;-74
2023/04/20 14:19:44;;;;;;;6.38;4.55;;;;;;;;;;4983474;28;25062;-75
2023/04/20 14:22:10;;;;;;;6.65;4.07;;;;;;;;;;4976243;28;25069;-74
2023/04/20 14:24:36;;;;;;;6.45;4.05;;;;;;;;;;4979626;28;25076;-75
2023/04/20 14:27:02;;;;;;;6.53;4.18;;;;;;;;;;4984441;28;25067;-72
2023/04/20 14:29:28;;;;;;;6.60;3.88;;;;;;;;;;4981369;28;25068;-73
2023/04/20 14:31:54;;;;;;;7.68;4.00;;;;;;;;;;4977756;28;25076;-72
2023/04/20 14:34:20;;;;;;;6.30;4.57;;;;;;;;;;4987174;28;25097;-75
2023/04/20 14:36:46;;;;;;;7.22;4.35;;;;;;;;;;5011312;28;25098;-73